sensor_id;sensor_type;location;lat;lon;timestamp;temperature;humidity
3001;DHT22;1510;51.072;6.678;2024-01-30T00:00:50;7.00;99.90
3001;DHT22;1510;51.072;6.678;2024-01-30T00:03:16;7.10;99.90
3001;DHT22;1510;51.072;6.678;2024-01-30T00:05:44;7.00;99.90
3001;DHT22;1510;51.072;6.678;2024-01-30T00:08:11;7.00;99.90
3001;DHT22;1510;51.072;6.678;2024-01-30T00:10:38;7.00;99.90
3001;DHT22;1510;51.072;6.678;2024-01-30T00:13:06;7.00;99.90
3001;DHT22;1510;51.072;6.678;2024-01-30T00:15:32;7.00;99.90
3001;DHT22;1510;51.072;6.678;2024-01-30T00:18:00;6.90;99.90
3001;DHT22;1510;51.072;6.678;2024-01-30T00:20:27;6.90;99.90
3001;DHT22;1510;51.072;6.678;2024-01-30T00:22:55;6.90;99.90
3001;DHT22;1510;51.072;6.678;2024-01-30T00:25:21;6.90;99.90
3001;DHT22;1510;51.072;6.678;2024-01-30T00:27:48;6.90;99.90
3001;DHT22;1510;51.072;6.678;2024-01-30T00:30:15;6.90;99.90
3001;DHT22;1510;51.072;6.678;2024-01-30T00:32:42;6.80;99.90
3001;DHT22;1510;51.072;6.678;2024-01-30T00:35:09;6.80;99.90
3001;DHT22;1510;51.072;6.678;2024-01-30T00:37:36;6.90;99.90
3001;DHT22;1510;51.072;6.678;2024-01-30T00:40:06;6.80;99.90
3001;DHT22;1510;51.072;6.678;2024-01-30T00:42:33;6.70;99.90
3001;DHT22;1510;51.072;6.678;2024-01-30T00:45:00;6.70;99.90
3001;DHT22;1510;51.072;6.678;2024-01-30T00:47:26;6.70;99.90
3001;DHT22;1510;51.072;6.678;2024-01-30T00:49:54;6.70;99.90
3001;DHT22;1510;51.072;6.678;2024-01-30T00:52:21;6.70;99.90
3001;DHT22;1510;51.072;6.678;2024-01-30T00:54:48;6.60;99.90
3001;DHT22;1510;51.072;6.678;2024-01-30T00:57:16;6.60;99.90
3001;DHT22;1510;51.072;6.678;2024-01-30T00:59:42;6.60;99.90
3001;DHT22;1510;51.072;6.678;2024-01-30T01:02:09;6.60;99.90
3001;DHT22;1510;51.072;6.678;2024-01-30T01:04:36;6.60;99.90
3001;DHT22;1510;51.072;6.678;2024-01-30T01:07:03;6.60;99.90
3001;DHT22;1510;51.072;6.678;2024-01-30T01:09:30;6.60;99.90
3001;DHT22;1510;51.072;6.678;2024-01-30T01:11:57;6.50;99.90
3001;DHT22;1510;51.072;6.678;2024-01-30T01:14:25;6.50;99.90
3001;DHT22;1510;51.072;6.678;2024-01-30T01:16:52;6.50;99.90
3001;DHT22;1510;51.072;6.678;2024-01-30T01:19:18;6.60;99.90
3001;DHT22;1510;51.072;6.678;2024-01-30T01:21:45;6.50;99.90
3001;DHT22;1510;51.072;6.678;2024-01-30T01:24:12;6.50;99.90
3001;DHT22;1510;51.072;6.678;2024-01-30T01:26:39;6.50;99.90
3001;DHT22;1510;51.072;6.678;2024-01-30T01:29:06;6.40;99.90
3001;DHT22;1510;51.072;6.678;2024-01-30T01:31:36;6.40;99.90
3001;DHT22;1510;51.072;6.678;2024-01-30T01:34:09;6.40;99.90
3001;DHT22;1510;51.072;6.678;2024-01-30T01:36:35;6.40;99.90
3001;DHT22;1510;51.072;6.678;2024-01-30T01:39:02;6.30;99.90
3001;DHT22;1510;51.072;6.678;2024-01-30T01:41:30;6.40;99.90
3001;DHT22;1510;51.072;6.678;2024-01-30T01:43:57;6.30;99.90
3001;DHT22;1510;51.072;6.678;2024-01-30T01:46:26;6.20;99.90
3001;DHT22;1510;51.072;6.678;2024-01-30T01:48:55;6.20;99.90
3001;DHT22;1510;51.072;6.678;2024-01-30T01:51:22;6.20;99.90
3001;DHT22;1510;51.072;6.678;2024-01-30T01:53:49;6.20;99.90
3001;DHT22;1510;51.072;6.678;2024-01-30T01:56:16;6.20;99.90
3001;DHT22;1510;51.072;6.678;2024-01-30T01:58:44;6.10;99.90
3001;DHT22;1510;51.072;6.678;2024-01-30T02:01:13;6.10;99.90
3001;DHT22;1510;51.072;6.678;2024-01-30T02:03:40;6.10;99.90
3001;DHT22;1510;51.072;6.678;2024-01-30T02:06:09;6.00;99.90
3001;DHT22;1510;51.072;6.678;2024-01-30T02:08:37;6.00;99.90
3001;DHT22;1510;51.072;6.678;2024-01-30T02:11:04;6.10;99.90
3001;DHT22;1510;51.072;6.678;2024-01-30T02:13:31;6.00;99.90
3001;DHT22;1510;51.072;6.678;2024-01-30T02:15:57;6.20;99.90
3001;DHT22;1510;51.072;6.678;2024-01-30T02:18:24;6.00;99.90
3001;DHT22;1510;51.072;6.678;2024-01-30T02:20:53;6.10;99.90
3001;DHT22;1510;51.072;6.678;2024-01-30T02:23:22;6.00;99.90
3001;DHT22;1510;51.072;6.678;2024-01-30T02:25:50;6.10;99.90
3001;DHT22;1510;51.072;6.678;2024-01-30T02:28:19;6.10;99.90
3001;DHT22;1510;51.072;6.678;2024-01-30T02:30:46;6.10;99.90
3001;DHT22;1510;51.072;6.678;2024-01-30T02:33:13;6.10;99.90
3001;DHT22;1510;51.072;6.678;2024-01-30T02:35:40;6.10;99.90
3001;DHT22;1510;51.072;6.678;2024-01-30T02:38:07;6.10;99.90
3001;DHT22;1510;51.072;6.678;2024-01-30T02:40:35;6.20;99.90
3001;DHT22;1510;51.072;6.678;2024-01-30T02:43:03;6.20;99.90
3001;DHT22;1510;51.072;6.678;2024-01-30T02:45:30;6.10;99.90
3001;DHT22;1510;51.072;6.678;2024-01-30T02:47:57;6.10;99.90
3001;DHT22;1510;51.072;6.678;2024-01-30T02:50:24;6.10;99.90
3001;DHT22;1510;51.072;6.678;2024-01-30T02:52:50;6.10;99.90
3001;DHT22;1510;51.072;6.678;2024-01-30T02:55:17;6.10;99.90
3001;DHT22;1510;51.072;6.678;2024-01-30T02:57:45;6.20;99.90
3001;DHT22;1510;51.072;6.678;2024-01-30T03:00:13;6.20;99.90
3001;DHT22;1510;51.072;6.678;2024-01-30T03:02:40;6.30;99.90
3001;DHT22;1510;51.072;6.678;2024-01-30T03:05:07;6.30;99.90
3001;DHT22;1510;51.072;6.678;2024-01-30T03:07:34;6.30;99.90
3001;DHT22;1510;51.072;6.678;2024-01-30T03:10:01;6.30;99.90
3001;DHT22;1510;51.072;6.678;2024-01-30T03:12:28;6.30;99.90
3001;DHT22;1510;51.072;6.678;2024-01-30T03:14:56;6.30;99.90
3001;DHT22;1510;51.072;6.678;2024-01-30T03:17:23;6.40;99.90
3001;DHT22;1510;51.072;6.678;2024-01-30T03:19:50;6.40;99.90
3001;DHT22;1510;51.072;6.678;2024-01-30T03:22:17;6.40;99.90
3001;DHT22;1510;51.072;6.678;2024-01-30T03:24:44;6.30;99.90
3001;DHT22;1510;51.072;6.678;2024-01-30T03:27:10;6.40;99.90
3001;DHT22;1510;51.072;6.678;2024-01-30T03:29:37;6.40;99.90
3001;DHT22;1510;51.072;6.678;2024-01-30T03:32:06;6.30;99.90
3001;DHT22;1510;51.072;6.678;2024-01-30T03:34:33;6.30;99.90
3001;DHT22;1510;51.072;6.678;2024-01-30T03:36:59;6.30;99.90
3001;DHT22;1510;51.072;6.678;2024-01-30T03:39:26;6.30;99.90
3001;DHT22;1510;51.072;6.678;2024-01-30T03:41:53;6.30;99.90
3001;DHT22;1510;51.072;6.678;2024-01-30T03:44:20;6.20;99.90
3001;DHT22;1510;51.072;6.678;2024-01-30T03:46:46;6.20;99.90
3001;DHT22;1510;51.072;6.678;2024-01-30T03:49:15;6.20;99.90
3001;DHT22;1510;51.072;6.678;2024-01-30T03:51:41;6.20;99.90
3001;DHT22;1510;51.072;6.678;2024-01-30T03:54:08;6.10;99.90
3001;DHT22;1510;51.072;6.678;2024-01-30T03:56:35;6.10;99.90
3001;DHT22;1510;51.072;6.678;2024-01-30T03:59:02;6.10;99.90
3001;DHT22;1510;51.072;6.678;2024-01-30T04:01:29;6.10;99.90
3001;DHT22;1510;51.072;6.678;2024-01-30T04:03:55;6.10;99.90
3001;DHT22;1510;51.072;6.678;2024-01-30T04:06:23;6.10;99.90
3001;DHT22;1510;51.072;6.678;2024-01-30T04:08:50;6.00;99.90
3001;DHT22;1510;51.072;6.678;2024-01-30T04:11:18;5.90;99.90
3001;DHT22;1510;51.072;6.678;2024-01-30T04:13:45;5.90;99.90
3001;DHT22;1510;51.072;6.678;2024-01-30T04:16:19;5.80;99.90
3001;DHT22;1510;51.072;6.678;2024-01-30T04:18:46;5.80;99.90
3001;DHT22;1510;51.072;6.678;2024-01-30T04:21:13;5.80;99.90
3001;DHT22;1510;51.072;6.678;2024-01-30T04:23:41;5.80;99.90
3001;DHT22;1510;51.072;6.678;2024-01-30T04:26:08;5.80;99.90
3001;DHT22;1510;51.072;6.678;2024-01-30T04:28:35;5.80;99.90
3001;DHT22;1510;51.072;6.678;2024-01-30T04:31:02;5.80;99.90
3001;DHT22;1510;51.072;6.678;2024-01-30T04:33:29;5.80;99.90
3001;DHT22;1510;51.072;6.678;2024-01-30T04:35:56;5.80;99.90
3001;DHT22;1510;51.072;6.678;2024-01-30T04:38:22;5.70;99.90
3001;DHT22;1510;51.072;6.678;2024-01-30T04:40:50;5.80;99.90
3001;DHT22;1510;51.072;6.678;2024-01-30T04:43:17;5.80;99.90
3001;DHT22;1510;51.072;6.678;2024-01-30T04:45:44;5.80;99.90
3001;DHT22;1510;51.072;6.678;2024-01-30T04:48:11;5.80;99.90
3001;DHT22;1510;51.072;6.678;2024-01-30T04:50:38;5.80;99.90
3001;DHT22;1510;51.072;6.678;2024-01-30T04:53:04;5.80;99.90
3001;DHT22;1510;51.072;6.678;2024-01-30T04:55:31;5.70;99.90
3001;DHT22;1510;51.072;6.678;2024-01-30T04:57:59;5.70;99.90
3001;DHT22;1510;51.072;6.678;2024-01-30T05:00:26;5.70;99.90
3001;DHT22;1510;51.072;6.678;2024-01-30T05:02:54;5.70;99.90
3001;DHT22;1510;51.072;6.678;2024-01-30T05:05:21;5.70;99.90
3001;DHT22;1510;51.072;6.678;2024-01-30T05:07:49;5.80;99.90
3001;DHT22;1510;51.072;6.678;2024-01-30T05:10:16;5.80;99.90
3001;DHT22;1510;51.072;6.678;2024-01-30T05:12:42;5.80;99.90
3001;DHT22;1510;51.072;6.678;2024-01-30T05:15:11;5.80;99.90
3001;DHT22;1510;51.072;6.678;2024-01-30T05:17:37;5.80;99.90
3001;DHT22;1510;51.072;6.678;2024-01-30T05:20:05;5.80;99.90
3001;DHT22;1510;51.072;6.678;2024-01-30T05:22:32;5.80;99.90
3001;DHT22;1510;51.072;6.678;2024-01-30T05:24:59;5.80;99.90
3001;DHT22;1510;51.072;6.678;2024-01-30T05:27:26;5.80;99.90
3001;DHT22;1510;51.072;6.678;2024-01-30T05:29:53;5.90;99.90
3001;DHT22;1510;51.072;6.678;2024-01-30T05:32:21;5.90;99.90
3001;DHT22;1510;51.072;6.678;2024-01-30T05:34:48;5.80;99.90
3001;DHT22;1510;51.072;6.678;2024-01-30T05:37:15;5.80;99.90
3001;DHT22;1510;51.072;6.678;2024-01-30T05:39:43;6.00;99.90
3001;DHT22;1510;51.072;6.678;2024-01-30T05:42:10;5.80;99.90
3001;DHT22;1510;51.072;6.678;2024-01-30T05:44:37;5.90;99.90
3001;DHT22;1510;51.072;6.678;2024-01-30T05:47:04;5.70;99.90
3001;DHT22;1510;51.072;6.678;2024-01-30T05:49:32;5.80;99.90
3001;DHT22;1510;51.072;6.678;2024-01-30T05:51:58;5.80;99.90
3001;DHT22;1510;51.072;6.678;2024-01-30T05:54:25;5.80;99.90
3001;DHT22;1510;51.072;6.678;2024-01-30T05:56:52;5.70;99.90
3001;DHT22;1510;51.072;6.678;2024-01-30T05:59:19;5.80;99.90
3001;DHT22;1510;51.072;6.678;2024-01-30T06:01:46;5.70;99.90
3001;DHT22;1510;51.072;6.678;2024-01-30T06:04:13;5.70;99.90
3001;DHT22;1510;51.072;6.678;2024-01-30T06:06:41;5.70;99.90
3001;DHT22;1510;51.072;6.678;2024-01-30T06:09:08;5.70;99.90
3001;DHT22;1510;51.072;6.678;2024-01-30T06:11:35;5.70;99.90
3001;DHT22;1510;51.072;6.678;2024-01-30T06:14:01;5.80;99.90
3001;DHT22;1510;51.072;6.678;2024-01-30T06:16:28;5.80;99.90
3001;DHT22;1510;51.072;6.678;2024-01-30T06:18:56;5.90;99.90
3001;DHT22;1510;51.072;6.678;2024-01-30T06:21:24;5.90;99.90
3001;DHT22;1510;51.072;6.678;2024-01-30T06:23:52;5.90;99.90
3001;DHT22;1510;51.072;6.678;2024-01-30T06:26:19;6.00;99.90
3001;DHT22;1510;51.072;6.678;2024-01-30T06:28:45;6.00;99.90
3001;DHT22;1510;51.072;6.678;2024-01-30T06:31:12;6.10;99.90
3001;DHT22;1510;51.072;6.678;2024-01-30T06:33:39;6.20;99.90
3001;DHT22;1510;51.072;6.678;2024-01-30T06:36:08;6.20;99.90
3001;DHT22;1510;51.072;6.678;2024-01-30T06:38:34;6.30;99.90
3001;DHT22;1510;51.072;6.678;2024-01-30T06:41:03;6.30;99.90
3001;DHT22;1510;51.072;6.678;2024-01-30T06:43:30;6.30;99.90
3001;DHT22;1510;51.072;6.678;2024-01-30T06:45:56;6.30;99.90
3001;DHT22;1510;51.072;6.678;2024-01-30T06:48:23;6.20;99.90
3001;DHT22;1510;51.072;6.678;2024-01-30T06:50:52;6.20;99.90
3001;DHT22;1510;51.072;6.678;2024-01-30T06:53:19;6.20;99.90
3001;DHT22;1510;51.072;6.678;2024-01-30T06:55:46;6.20;99.90
3001;DHT22;1510;51.072;6.678;2024-01-30T06:58:14;6.10;99.90
3001;DHT22;1510;51.072;6.678;2024-01-30T07:00:41;6.10;99.90
3001;DHT22;1510;51.072;6.678;2024-01-30T07:03:09;6.20;99.90
3001;DHT22;1510;51.072;6.678;2024-01-30T07:05:36;6.20;99.90
3001;DHT22;1510;51.072;6.678;2024-01-30T07:08:03;6.30;99.90
3001;DHT22;1510;51.072;6.678;2024-01-30T07:10:31;6.30;99.90
3001;DHT22;1510;51.072;6.678;2024-01-30T07:12:58;6.30;99.90
3001;DHT22;1510;51.072;6.678;2024-01-30T07:15:26;6.30;99.90
3001;DHT22;1510;51.072;6.678;2024-01-30T07:17:54;6.30;99.90
3001;DHT22;1510;51.072;6.678;2024-01-30T07:20:21;6.30;99.90
3001;DHT22;1510;51.072;6.678;2024-01-30T07:22:48;6.30;99.90
3001;DHT22;1510;51.072;6.678;2024-01-30T07:25:15;6.30;99.90
3001;DHT22;1510;51.072;6.678;2024-01-30T07:27:42;6.30;99.90
3001;DHT22;1510;51.072;6.678;2024-01-30T07:30:10;6.30;99.90
3001;DHT22;1510;51.072;6.678;2024-01-30T07:32:38;6.30;99.90
3001;DHT22;1510;51.072;6.678;2024-01-30T07:35:05;6.30;99.90
3001;DHT22;1510;51.072;6.678;2024-01-30T07:37:32;6.30;99.90
3001;DHT22;1510;51.072;6.678;2024-01-30T07:40:01;6.40;99.90
3001;DHT22;1510;51.072;6.678;2024-01-30T07:42:28;6.40;99.90
3001;DHT22;1510;51.072;6.678;2024-01-30T07:44:55;6.40;99.90
3001;DHT22;1510;51.072;6.678;2024-01-30T07:47:22;6.50;99.90
3001;DHT22;1510;51.072;6.678;2024-01-30T07:49:51;6.50;99.90
3001;DHT22;1510;51.072;6.678;2024-01-30T07:52:19;6.60;99.90
3001;DHT22;1510;51.072;6.678;2024-01-30T07:54:46;6.60;99.90
3001;DHT22;1510;51.072;6.678;2024-01-30T07:57:13;6.60;99.90
3001;DHT22;1510;51.072;6.678;2024-01-30T07:59:42;6.70;99.90
3001;DHT22;1510;51.072;6.678;2024-01-30T08:02:09;6.70;99.90
3001;DHT22;1510;51.072;6.678;2024-01-30T08:04:36;6.80;99.90
3001;DHT22;1510;51.072;6.678;2024-01-30T08:07:04;6.90;99.90
3001;DHT22;1510;51.072;6.678;2024-01-30T08:09:32;7.00;99.90
3001;DHT22;1510;51.072;6.678;2024-01-30T08:11:59;7.10;99.90
3001;DHT22;1510;51.072;6.678;2024-01-30T08:14:25;7.20;99.90
3001;DHT22;1510;51.072;6.678;2024-01-30T08:16:52;7.20;99.90
3001;DHT22;1510;51.072;6.678;2024-01-30T08:19:19;7.30;99.90
3001;DHT22;1510;51.072;6.678;2024-01-30T08:21:46;7.30;99.90
3001;DHT22;1510;51.072;6.678;2024-01-30T08:24:14;7.40;99.90
3001;DHT22;1510;51.072;6.678;2024-01-30T08:26:41;7.40;99.90
3001;DHT22;1510;51.072;6.678;2024-01-30T08:29:07;7.50;99.90
3001;DHT22;1510;51.072;6.678;2024-01-30T08:31:34;7.40;99.90
3001;DHT22;1510;51.072;6.678;2024-01-30T08:34:01;7.50;99.90
3001;DHT22;1510;51.072;6.678;2024-01-30T08:36:28;7.50;99.90
3001;DHT22;1510;51.072;6.678;2024-01-30T08:38:54;7.50;99.90
3001;DHT22;1510;51.072;6.678;2024-01-30T08:41:24;7.60;99.90
3001;DHT22;1510;51.072;6.678;2024-01-30T08:43:51;7.60;99.90
3001;DHT22;1510;51.072;6.678;2024-01-30T08:46:18;7.70;99.90
3001;DHT22;1510;51.072;6.678;2024-01-30T08:48:46;7.70;99.90
3001;DHT22;1510;51.072;6.678;2024-01-30T08:51:14;7.80;99.90
3001;DHT22;1510;51.072;6.678;2024-01-30T08:53:41;7.90;99.90
3001;DHT22;1510;51.072;6.678;2024-01-30T08:56:08;8.00;99.90
3001;DHT22;1510;51.072;6.678;2024-01-30T08:58:36;8.00;99.90
3001;DHT22;1510;51.072;6.678;2024-01-30T09:01:03;8.10;99.90
3001;DHT22;1510;51.072;6.678;2024-01-30T09:03:31;8.20;99.90
3001;DHT22;1510;51.072;6.678;2024-01-30T09:05:58;8.20;99.90
3001;DHT22;1510;51.072;6.678;2024-01-30T09:08:24;8.30;99.90
3001;DHT22;1510;51.072;6.678;2024-01-30T09:10:51;8.40;99.90
3001;DHT22;1510;51.072;6.678;2024-01-30T09:13:18;8.40;99.90
3001;DHT22;1510;51.072;6.678;2024-01-30T09:15:46;8.50;99.90
3001;DHT22;1510;51.072;6.678;2024-01-30T09:18:13;8.60;99.90
3001;DHT22;1510;51.072;6.678;2024-01-30T09:20:39;8.60;99.90
3001;DHT22;1510;51.072;6.678;2024-01-30T09:23:06;8.70;99.90
3001;DHT22;1510;51.072;6.678;2024-01-30T09:25:33;8.70;99.90
3001;DHT22;1510;51.072;6.678;2024-01-30T09:28:00;8.80;99.90
3001;DHT22;1510;51.072;6.678;2024-01-30T09:30:27;8.90;99.90
3001;DHT22;1510;51.072;6.678;2024-01-30T09:32:55;8.90;99.90
3001;DHT22;1510;51.072;6.678;2024-01-30T09:35:22;9.00;99.90
3001;DHT22;1510;51.072;6.678;2024-01-30T09:37:49;9.10;99.90
3001;DHT22;1510;51.072;6.678;2024-01-30T09:40:17;9.10;99.90
3001;DHT22;1510;51.072;6.678;2024-01-30T09:42:47;9.10;99.90
3001;DHT22;1510;51.072;6.678;2024-01-30T09:45:14;9.10;99.90
3001;DHT22;1510;51.072;6.678;2024-01-30T09:47:42;9.20;99.90
3001;DHT22;1510;51.072;6.678;2024-01-30T09:50:11;9.30;99.90
3001;DHT22;1510;51.072;6.678;2024-01-30T09:52:38;9.30;99.90
3001;DHT22;1510;51.072;6.678;2024-01-30T09:55:06;9.30;99.90
3001;DHT22;1510;51.072;6.678;2024-01-30T09:57:34;9.30;99.90
3001;DHT22;1510;51.072;6.678;2024-01-30T10:00:01;9.40;99.90
3001;DHT22;1510;51.072;6.678;2024-01-30T10:02:28;9.40;99.90
3001;DHT22;1510;51.072;6.678;2024-01-30T10:04:55;9.50;99.90
3001;DHT22;1510;51.072;6.678;2024-01-30T10:07:23;9.50;99.90
3001;DHT22;1510;51.072;6.678;2024-01-30T10:09:50;9.60;99.90
3001;DHT22;1510;51.072;6.678;2024-01-30T10:12:15;9.60;99.90
3001;DHT22;1510;51.072;6.678;2024-01-30T10:14:43;9.70;99.90
3001;DHT22;1510;51.072;6.678;2024-01-30T10:17:10;9.80;99.90
3001;DHT22;1510;51.072;6.678;2024-01-30T10:19:37;9.80;99.90
3001;DHT22;1510;51.072;6.678;2024-01-30T10:22:04;9.80;99.90
3001;DHT22;1510;51.072;6.678;2024-01-30T10:24:33;9.90;99.90
3001;DHT22;1510;51.072;6.678;2024-01-30T10:27:01;10.00;99.90
3001;DHT22;1510;51.072;6.678;2024-01-30T10:29:28;10.10;99.90
3001;DHT22;1510;51.072;6.678;2024-01-30T10:31:58;10.10;99.90
3001;DHT22;1510;51.072;6.678;2024-01-30T10:34:26;10.30;99.90
3001;DHT22;1510;51.072;6.678;2024-01-30T10:36:59;10.40;99.90
3001;DHT22;1510;51.072;6.678;2024-01-30T10:39:29;10.60;99.90
3001;DHT22;1510;51.072;6.678;2024-01-30T10:42:03;10.60;99.90
3001;DHT22;1510;51.072;6.678;2024-01-30T10:44:37;10.70;99.90
3001;DHT22;1510;51.072;6.678;2024-01-30T10:47:08;10.90;99.90
3001;DHT22;1510;51.072;6.678;2024-01-30T10:49:39;10.90;99.90
3001;DHT22;1510;51.072;6.678;2024-01-30T10:52:06;11.00;99.90
3001;DHT22;1510;51.072;6.678;2024-01-30T10:54:35;11.10;99.90
3001;DHT22;1510;51.072;6.678;2024-01-30T10:57:04;10.90;99.90
3001;DHT22;1510;51.072;6.678;2024-01-30T10:59:33;10.90;99.90
3001;DHT22;1510;51.072;6.678;2024-01-30T11:02:00;11.00;99.90
3001;DHT22;1510;51.072;6.678;2024-01-30T11:04:27;10.90;99.90
3001;DHT22;1510;51.072;6.678;2024-01-30T11:07:01;11.10;99.90
3001;DHT22;1510;51.072;6.678;2024-01-30T11:09:29;11.20;99.90
3001;DHT22;1510;51.072;6.678;2024-01-30T11:11:57;11.20;99.90
3001;DHT22;1510;51.072;6.678;2024-01-30T11:14:28;11.30;99.90
3001;DHT22;1510;51.072;6.678;2024-01-30T11:16:57;11.60;99.90
3001;DHT22;1510;51.072;6.678;2024-01-30T11:19:24;11.60;99.90
3001;DHT22;1510;51.072;6.678;2024-01-30T11:21:52;11.60;99.90
3001;DHT22;1510;51.072;6.678;2024-01-30T11:24:20;11.70;99.90
3001;DHT22;1510;51.072;6.678;2024-01-30T11:26:49;11.80;99.90
3001;DHT22;1510;51.072;6.678;2024-01-30T11:29:17;11.80;99.90
3001;DHT22;1510;51.072;6.678;2024-01-30T11:31:53;11.90;99.90
3001;DHT22;1510;51.072;6.678;2024-01-30T11:34:20;11.90;99.90
3001;DHT22;1510;51.072;6.678;2024-01-30T11:36:51;11.90;99.90
3001;DHT22;1510;51.072;6.678;2024-01-30T11:39:21;12.10;99.90
3001;DHT22;1510;51.072;6.678;2024-01-30T11:41:50;12.10;99.90
3001;DHT22;1510;51.072;6.678;2024-01-30T11:44:18;12.20;99.90
3001;DHT22;1510;51.072;6.678;2024-01-30T11:46:45;12.20;99.90
3001;DHT22;1510;51.072;6.678;2024-01-30T11:49:14;12.30;99.90
3001;DHT22;1510;51.072;6.678;2024-01-30T11:51:41;12.30;99.90
3001;DHT22;1510;51.072;6.678;2024-01-30T11:54:08;12.40;99.90
3001;DHT22;1510;51.072;6.678;2024-01-30T11:56:36;12.50;99.90
3001;DHT22;1510;51.072;6.678;2024-01-30T11:59:03;12.60;99.90
3001;DHT22;1510;51.072;6.678;2024-01-30T12:01:30;12.70;99.90
3001;DHT22;1510;51.072;6.678;2024-01-30T12:03:58;12.70;99.90
3001;DHT22;1510;51.072;6.678;2024-01-30T12:06:26;12.70;99.90
3001;DHT22;1510;51.072;6.678;2024-01-30T12:09:00;12.90;99.90
3001;DHT22;1510;51.072;6.678;2024-01-30T12:11:29;12.70;99.90
3001;DHT22;1510;51.072;6.678;2024-01-30T12:13:56;12.90;99.90
3001;DHT22;1510;51.072;6.678;2024-01-30T12:16:23;12.70;99.90
3001;DHT22;1510;51.072;6.678;2024-01-30T12:18:59;12.70;99.90
3001;DHT22;1510;51.072;6.678;2024-01-30T12:21:28;12.70;99.90
3001;DHT22;1510;51.072;6.678;2024-01-30T12:23:56;12.70;99.90
3001;DHT22;1510;51.072;6.678;2024-01-30T12:26:24;12.60;99.90
3001;DHT22;1510;51.072;6.678;2024-01-30T12:28:54;12.60;99.90
3001;DHT22;1510;51.072;6.678;2024-01-30T12:31:25;12.60;99.90
3001;DHT22;1510;51.072;6.678;2024-01-30T12:33:53;12.60;99.90
3001;DHT22;1510;51.072;6.678;2024-01-30T12:36:20;12.60;99.90
3001;DHT22;1510;51.072;6.678;2024-01-30T12:38:49;12.70;99.90
3001;DHT22;1510;51.072;6.678;2024-01-30T12:41:15;12.90;99.90
3001;DHT22;1510;51.072;6.678;2024-01-30T12:43:43;12.70;99.90
3001;DHT22;1510;51.072;6.678;2024-01-30T12:46:10;12.70;99.90
3001;DHT22;1510;51.072;6.678;2024-01-30T12:48:37;12.70;99.90
3001;DHT22;1510;51.072;6.678;2024-01-30T12:51:04;12.70;99.90
3001;DHT22;1510;51.072;6.678;2024-01-30T12:53:32;12.70;99.90
3001;DHT22;1510;51.072;6.678;2024-01-30T12:56:01;12.60;99.90
3001;DHT22;1510;51.072;6.678;2024-01-30T12:58:28;12.60;99.90
3001;DHT22;1510;51.072;6.678;2024-01-30T13:00:55;12.60;99.90
3001;DHT22;1510;51.072;6.678;2024-01-30T13:03:22;12.50;99.90
3001;DHT22;1510;51.072;6.678;2024-01-30T13:05:49;12.50;99.90
3001;DHT22;1510;51.072;6.678;2024-01-30T13:08:16;12.70;99.90
3001;DHT22;1510;51.072;6.678;2024-01-30T13:10:43;12.40;99.90
3001;DHT22;1510;51.072;6.678;2024-01-30T13:13:11;12.40;99.90
3001;DHT22;1510;51.072;6.678;2024-01-30T13:15:38;12.40;99.90
3001;DHT22;1510;51.072;6.678;2024-01-30T13:18:06;12.30;99.90
3001;DHT22;1510;51.072;6.678;2024-01-30T13:20:32;12.30;99.90
3001;DHT22;1510;51.072;6.678;2024-01-30T13:22:59;12.20;99.90
3001;DHT22;1510;51.072;6.678;2024-01-30T13:25:26;12.20;99.90
3001;DHT22;1510;51.072;6.678;2024-01-30T13:27:53;12.20;99.90
3001;DHT22;1510;51.072;6.678;2024-01-30T13:30:21;12.10;99.90
3001;DHT22;1510;51.072;6.678;2024-01-30T13:32:48;12.20;99.90
3001;DHT22;1510;51.072;6.678;2024-01-30T13:35:15;12.10;99.90
3001;DHT22;1510;51.072;6.678;2024-01-30T13:37:41;12.20;99.90
3001;DHT22;1510;51.072;6.678;2024-01-30T13:40:09;12.20;99.90
3001;DHT22;1510;51.072;6.678;2024-01-30T13:42:36;12.20;99.90
3001;DHT22;1510;51.072;6.678;2024-01-30T13:45:03;12.10;99.90
3001;DHT22;1510;51.072;6.678;2024-01-30T13:47:31;12.20;99.90
3001;DHT22;1510;51.072;6.678;2024-01-30T13:49:58;12.20;99.90
3001;DHT22;1510;51.072;6.678;2024-01-30T13:52:25;12.30;99.90
3001;DHT22;1510;51.072;6.678;2024-01-30T13:54:52;12.30;99.90
3001;DHT22;1510;51.072;6.678;2024-01-30T13:57:19;12.40;99.90
3001;DHT22;1510;51.072;6.678;2024-01-30T13:59:46;12.50;99.90
3001;DHT22;1510;51.072;6.678;2024-01-30T14:02:13;12.60;99.90
3001;DHT22;1510;51.072;6.678;2024-01-30T14:04:41;12.60;99.90
3001;DHT22;1510;51.072;6.678;2024-01-30T14:07:09;12.60;99.90
3001;DHT22;1510;51.072;6.678;2024-01-30T14:09:35;12.60;99.90
3001;DHT22;1510;51.072;6.678;2024-01-30T14:12:02;12.60;99.90
3001;DHT22;1510;51.072;6.678;2024-01-30T14:14:29;12.60;99.90
3001;DHT22;1510;51.072;6.678;2024-01-30T14:16:56;12.50;99.90
3001;DHT22;1510;51.072;6.678;2024-01-30T14:19:23;12.40;99.90
3001;DHT22;1510;51.072;6.678;2024-01-30T14:21:51;12.30;99.90
3001;DHT22;1510;51.072;6.678;2024-01-30T14:24:18;12.30;99.90
3001;DHT22;1510;51.072;6.678;2024-01-30T14:26:45;12.20;99.90
3001;DHT22;1510;51.072;6.678;2024-01-30T14:29:12;12.20;99.90
3001;DHT22;1510;51.072;6.678;2024-01-30T14:31:39;12.20;99.90
3001;DHT22;1510;51.072;6.678;2024-01-30T14:34:06;12.10;99.90
3001;DHT22;1510;51.072;6.678;2024-01-30T14:36:34;12.10;99.90
3001;DHT22;1510;51.072;6.678;2024-01-30T14:39:02;12.00;99.90
3001;DHT22;1510;51.072;6.678;2024-01-30T14:41:29;12.00;99.90
3001;DHT22;1510;51.072;6.678;2024-01-30T14:43:56;11.90;99.90
3001;DHT22;1510;51.072;6.678;2024-01-30T14:46:23;11.90;99.90
3001;DHT22;1510;51.072;6.678;2024-01-30T14:48:51;11.80;99.90
3001;DHT22;1510;51.072;6.678;2024-01-30T14:51:18;11.80;99.90
3001;DHT22;1510;51.072;6.678;2024-01-30T14:53:44;11.80;99.90
3001;DHT22;1510;51.072;6.678;2024-01-30T14:56:13;11.90;99.90
3001;DHT22;1510;51.072;6.678;2024-01-30T14:58:39;11.80;99.90
3001;DHT22;1510;51.072;6.678;2024-01-30T15:01:07;11.70;99.90
3001;DHT22;1510;51.072;6.678;2024-01-30T15:03:34;11.70;99.90
3001;DHT22;1510;51.072;6.678;2024-01-30T15:06:01;11.70;99.90
3001;DHT22;1510;51.072;6.678;2024-01-30T15:08:30;11.70;99.90
3001;DHT22;1510;51.072;6.678;2024-01-30T15:10:58;11.70;99.90
3001;DHT22;1510;51.072;6.678;2024-01-30T15:13:26;11.70;99.90
3001;DHT22;1510;51.072;6.678;2024-01-30T15:15:53;11.60;99.90
3001;DHT22;1510;51.072;6.678;2024-01-30T15:18:20;11.60;99.90
3001;DHT22;1510;51.072;6.678;2024-01-30T15:20:46;11.60;99.90
3001;DHT22;1510;51.072;6.678;2024-01-30T15:23:13;11.50;99.90
3001;DHT22;1510;51.072;6.678;2024-01-30T15:25:41;11.40;99.90
3001;DHT22;1510;51.072;6.678;2024-01-30T15:28:08;11.40;99.90
3001;DHT22;1510;51.072;6.678;2024-01-30T15:30:37;11.30;99.90
3001;DHT22;1510;51.072;6.678;2024-01-30T15:33:04;11.30;99.90
3001;DHT22;1510;51.072;6.678;2024-01-30T15:35:31;11.20;99.90
3001;DHT22;1510;51.072;6.678;2024-01-30T15:37:58;11.10;99.90
3001;DHT22;1510;51.072;6.678;2024-01-30T15:40:24;11.10;99.90
3001;DHT22;1510;51.072;6.678;2024-01-30T15:42:51;11.10;99.90
3001;DHT22;1510;51.072;6.678;2024-01-30T15:45:18;11.20;99.90
3001;DHT22;1510;51.072;6.678;2024-01-30T15:47:47;10.90;99.90
3001;DHT22;1510;51.072;6.678;2024-01-30T15:50:13;11.00;99.90
3001;DHT22;1510;51.072;6.678;2024-01-30T15:52:40;10.90;99.90
3001;DHT22;1510;51.072;6.678;2024-01-30T15:55:07;10.90;99.90
3001;DHT22;1510;51.072;6.678;2024-01-30T15:57:34;10.90;99.90
3001;DHT22;1510;51.072;6.678;2024-01-30T16:00:00;10.90;99.90
3001;DHT22;1510;51.072;6.678;2024-01-30T16:02:29;10.80;99.90
3001;DHT22;1510;51.072;6.678;2024-01-30T16:04:57;10.70;99.90
3001;DHT22;1510;51.072;6.678;2024-01-30T16:07:24;10.70;99.90
3001;DHT22;1510;51.072;6.678;2024-01-30T16:09:51;10.60;99.90
3001;DHT22;1510;51.072;6.678;2024-01-30T16:12:18;10.50;99.90